sensor_id;sensor_type;location;lat;lon;timestamp;pressure;altitude;pressure_sealevel;temperature;humidity
77023;BME280;65952;51.440;-2.054;2023-02-15T00:01:35;101265.31;;;4.52;74.15
77023;BME280;65952;51.440;-2.054;2023-02-15T00:04:01;101264.56;;;4.37;74.26
77023;BME280;65952;51.440;-2.054;2023-02-15T00:06:26;101261.38;;;4.32;74.77
77023;BME280;65952;51.440;-2.054;2023-02-15T00:08:54;101266.16;;;4.27;74.99
77023;BME280;65952;51.440;-2.054;2023-02-15T00:11:19;101256.34;;;4.14;75.18
77023;BME280;65952;51.440;-2.054;2023-02-15T00:16:37;101255.69;;;4.11;76.18
77023;BME280;65952;51.440;-2.054;2023-02-15T00:19:02;101255.91;;;4.07;76.45
77023;BME280;65952;51.440;-2.054;2023-02-15T00:21:30;101251.53;;;4.06;76.48
77023;BME280;65952;51.440;-2.054;2023-02-15T00:23:57;101250.78;;;4.04;76.55
77023;BME280;65952;51.440;-2.054;2023-02-15T00:26:22;101244.22;;;4.10;77.16
77023;BME280;65952;51.440;-2.054;2023-02-15T00:28:48;101245.28;;;4.20;77.66
77023;BME280;65952;51.440;-2.054;2023-02-15T00:31:13;101235.09;;;4.27;76.88
77023;BME280;65952;51.440;-2.054;2023-02-15T00:33:39;101224.16;;;4.32;76.86
77023;BME280;65952;51.440;-2.054;2023-02-15T00:36:08;101221.28;;;4.35;76.74
77023;BME280;65952;51.440;-2.054;2023-02-15T00:38:34;101220.13;;;4.39;76.86
77023;BME280;65952;51.440;-2.054;2023-02-15T00:41:02;101214.69;;;4.53;76.28
77023;BME280;65952;51.440;-2.054;2023-02-15T00:43:29;101213.44;;;4.59;75.85
77023;BME280;65952;51.440;-2.054;2023-02-15T00:45:55;101213.50;;;4.58;75.53
77023;BME280;65952;51.440;-2.054;2023-02-15T00:48:20;101210.31;;;4.52;75.58
77023;BME280;65952;51.440;-2.054;2023-02-15T00:50:48;101206.94;;;4.50;75.64
77023;BME280;65952;51.440;-2.054;2023-02-15T00:53:14;101209.47;;;4.52;75.78
77023;BME280;65952;51.440;-2.054;2023-02-15T00:55:39;101208.63;;;4.51;75.73
77023;BME280;65952;51.440;-2.054;2023-02-15T00:58:06;101204.28;;;4.50;76.07
77023;BME280;65952;51.440;-2.054;2023-02-15T01:00:32;101198.84;;;4.52;76.12
77023;BME280;65952;51.440;-2.054;2023-02-15T01:02:57;101190.00;;;4.51;75.80
77023;BME280;65952;51.440;-2.054;2023-02-15T01:05:23;101197.13;;;4.51;76.12
77023;BME280;65952;51.440;-2.054;2023-02-15T01:07:48;101193.53;;;4.52;76.46
77023;BME280;65952;51.440;-2.054;2023-02-15T01:10:14;101193.94;;;4.59;76.42
77023;BME280;65952;51.440;-2.054;2023-02-15T01:12:39;101200.53;;;4.66;76.44
77023;BME280;65952;51.440;-2.054;2023-02-15T01:15:05;101204.78;;;4.68;76.23
77023;BME280;65952;51.440;-2.054;2023-02-15T01:17:31;101203.59;;;4.72;76.16
77023;BME280;65952;51.440;-2.054;2023-02-15T01:19:56;101198.94;;;4.76;76.14
77023;BME280;65952;51.440;-2.054;2023-02-15T01:22:22;101202.00;;;4.70;76.26
77023;BME280;65952;51.440;-2.054;2023-02-15T01:24:49;101202.25;;;4.67;76.48
77023;BME280;65952;51.440;-2.054;2023-02-15T01:27:14;101190.09;;;4.63;76.33
77023;BME280;65952;51.440;-2.054;2023-02-15T01:29:39;101192.47;;;4.54;76.46
77023;BME280;65952;51.440;-2.054;2023-02-15T01:32:05;101185.00;;;4.60;76.45
77023;BME280;65952;51.440;-2.054;2023-02-15T01:34:30;101181.41;;;4.61;77.17
77023;BME280;65952;51.440;-2.054;2023-02-15T01:40:15;101175.22;;;4.60;77.59
77023;BME280;65952;51.440;-2.054;2023-02-15T01:42:41;101169.25;;;4.56;77.57
77023;BME280;65952;51.440;-2.054;2023-02-15T01:45:23;101166.81;;;4.53;77.68
77023;BME280;65952;51.440;-2.054;2023-02-15T01:47:51;101164.47;;;4.49;77.98
77023;BME280;65952;51.440;-2.054;2023-02-15T01:50:26;101152.25;;;4.46;78.16
77023;BME280;65952;51.440;-2.054;2023-02-15T01:53:12;101151.19;;;4.49;78.36
77023;BME280;65952;51.440;-2.054;2023-02-15T01:55:58;101158.50;;;4.45;78.68
77023;BME280;65952;51.440;-2.054;2023-02-15T01:58:26;101154.06;;;4.46;78.72
77023;BME280;65952;51.440;-2.054;2023-02-15T02:00:53;101146.72;;;4.49;78.58
77023;BME280;65952;51.440;-2.054;2023-02-15T02:03:30;101148.63;;;4.60;78.33
77023;BME280;65952;51.440;-2.054;2023-02-15T02:05:59;101149.47;;;4.61;78.68
77023;BME280;65952;51.440;-2.054;2023-02-15T02:08:25;101143.22;;;4.62;78.83
77023;BME280;65952;51.440;-2.054;2023-02-15T02:10:50;101136.03;;;4.75;78.43
77023;BME280;65952;51.440;-2.054;2023-02-15T02:13:16;101137.41;;;4.81;78.10
77023;BME280;65952;51.440;-2.054;2023-02-15T02:15:54;101133.81;;;4.82;78.16
77023;BME280;65952;51.440;-2.054;2023-02-15T02:18:53;101132.22;;;4.79;78.10
77023;BME280;65952;51.440;-2.054;2023-02-15T02:35:21;101116.78;;;4.84;78.14
77023;BME280;65952;51.440;-2.054;2023-02-15T02:40:51;101106.13;;;4.71;79.05
77023;BME280;65952;51.440;-2.054;2023-02-15T02:46:00;101089.75;;;4.78;78.89
77023;BME280;65952;51.440;-2.054;2023-02-15T02:48:30;101086.75;;;4.82;78.91
77023;BME280;65952;51.440;-2.054;2023-02-15T02:50:57;101085.56;;;4.86;79.11
77023;BME280;65952;51.440;-2.054;2023-02-15T02:53:22;101084.09;;;4.82;79.34
77023;BME280;65952;51.440;-2.054;2023-02-15T02:55:54;101083.25;;;4.82;79.10
77023;BME280;65952;51.440;-2.054;2023-02-15T02:58:41;101069.84;;;4.83;79.12
77023;BME280;65952;51.440;-2.054;2023-02-15T03:01:16;101072.50;;;4.83;78.88
77023;BME280;65952;51.440;-2.054;2023-02-15T03:03:47;101074.41;;;4.81;79.04
77023;BME280;65952;51.440;-2.054;2023-02-15T03:06:32;101065.81;;;4.78;79.73
77023;BME280;65952;51.440;-2.054;2023-02-15T03:09:06;101067.94;;;4.72;79.79
77023;BME280;65952;51.440;-2.054;2023-02-15T03:11:41;101058.69;;;4.78;80.05
77023;BME280;65952;51.440;-2.054;2023-02-15T03:14:08;101060.38;;;4.79;79.86
77023;BME280;65952;51.440;-2.054;2023-02-15T03:16:33;101052.16;;;4.82;79.74
77023;BME280;65952;51.440;-2.054;2023-02-15T03:19:13;101053.38;;;4.78;80.15
77023;BME280;65952;51.440;-2.054;2023-02-15T03:21:48;101050.78;;;4.77;80.14
77023;BME280;65952;51.440;-2.054;2023-02-15T03:24:24;101053.00;;;4.83;79.69
77023;BME280;65952;51.440;-2.054;2023-02-15T03:26:52;101041.97;;;4.76;80.02
77023;BME280;65952;51.440;-2.054;2023-02-15T03:29:20;101030.81;;;4.71;80.24
77023;BME280;65952;51.440;-2.054;2023-02-15T03:31:50;101037.97;;;4.70;80.14
77023;BME280;65952;51.440;-2.054;2023-02-15T03:34:18;101036.38;;;4.68;80.16
77023;BME280;65952;51.440;-2.054;2023-02-15T03:36:56;101029.94;;;4.59;80.39
77023;BME280;65952;51.440;-2.054;2023-02-15T03:39:40;101029.81;;;4.61;80.40
77023;BME280;65952;51.440;-2.054;2023-02-15T03:42:31;101027.72;;;4.53;80.45
77023;BME280;65952;51.440;-2.054;2023-02-15T03:47:31;101010.50;;;4.46;80.76
77023;BME280;65952;51.440;-2.054;2023-02-15T03:50:27;101009.03;;;4.42;81.03
77023;BME280;65952;51.440;-2.054;2023-02-15T03:53:17;101004.22;;;4.34;81.85
77023;BME280;65952;51.440;-2.054;2023-02-15T03:55:49;101004.97;;;4.36;81.89
77023;BME280;65952;51.440;-2.054;2023-02-15T03:58:18;100998.81;;;4.35;81.69
77023;BME280;65952;51.440;-2.054;2023-02-15T04:01:15;101004.03;;;4.37;81.70
77023;BME280;65952;51.440;-2.054;2023-02-15T04:04:08;100998.47;;;4.40;81.78
77023;BME280;65952;51.440;-2.054;2023-02-15T04:06:35;100993.06;;;4.42;81.53
77023;BME280;65952;51.440;-2.054;2023-02-15T04:09:00;100996.44;;;4.44;81.66
77023;BME280;65952;51.440;-2.054;2023-02-15T04:11:46;100997.53;;;4.41;81.74
77023;BME280;65952;51.440;-2.054;2023-02-15T04:14:11;100992.09;;;4.43;81.69
77023;BME280;65952;51.440;-2.054;2023-02-15T04:16:55;100993.28;;;4.38;81.85
77023;BME280;65952;51.440;-2.054;2023-02-15T04:19:21;100987.13;;;4.38;81.85
77023;BME280;65952;51.440;-2.054;2023-02-15T04:22:05;100984.56;;;4.36;81.57
77023;BME280;65952;51.440;-2.054;2023-02-15T04:24:49;100984.91;;;4.32;81.72
77023;BME280;65952;51.440;-2.054;2023-02-15T04:27:33;100981.38;;;4.31;81.94
77023;BME280;65952;51.440;-2.054;2023-02-15T04:29:58;100982.44;;;4.29;82.27
77023;BME280;65952;51.440;-2.054;2023-02-15T04:32:23;100983.09;;;4.32;82.25
77023;BME280;65952;51.440;-2.054;2023-02-15T04:34:49;100973.31;;;4.33;82.67
77023;BME280;65952;51.440;-2.054;2023-02-15T04:37:14;100972.44;;;4.32;82.64
77023;BME280;65952;51.440;-2.054;2023-02-15T04:39:40;100972.34;;;4.34;82.77
77023;BME280;65952;51.440;-2.054;2023-02-15T04:42:06;100968.28;;;4.41;82.92
77023;BME280;65952;51.440;-2.054;2023-02-15T04:44:31;100967.63;;;4.50;82.64
77023;BME280;65952;51.440;-2.054;2023-02-15T04:46:56;100959.09;;;4.45;82.80
77023;BME280;65952;51.440;-2.054;2023-02-15T04:49:22;100961.75;;;4.58;82.16
77023;BME280;65952;51.440;-2.054;2023-02-15T04:51:47;100964.47;;;4.56;81.97
77023;BME280;65952;51.440;-2.054;2023-02-15T04:54:12;100953.34;;;4.51;81.71
77023;BME280;65952;51.440;-2.054;2023-02-15T04:56:39;100951.56;;;4.52;82.19
77023;BME280;65952;51.440;-2.054;2023-02-15T04:59:05;100957.94;;;4.49;82.20
77023;BME280;65952;51.440;-2.054;2023-02-15T05:01:30;100946.69;;;4.46;82.42
77023;BME280;65952;51.440;-2.054;2023-02-15T05:03:56;100955.50;;;4.46;82.27
77023;BME280;65952;51.440;-2.054;2023-02-15T05:06:21;100951.38;;;4.42;82.10
77023;BME280;65952;51.440;-2.054;2023-02-15T05:08:47;100957.13;;;4.36;82.27
77023;BME280;65952;51.440;-2.054;2023-02-15T05:11:12;100958.84;;;4.37;82.71
77023;BME280;65952;51.440;-2.054;2023-02-15T05:13:37;100964.34;;;4.34;82.84
77023;BME280;65952;51.440;-2.054;2023-02-15T05:16:03;100962.44;;;4.36;82.80
77023;BME280;65952;51.440;-2.054;2023-02-15T05:18:28;100956.75;;;4.29;82.78
77023;BME280;65952;51.440;-2.054;2023-02-15T05:20:54;100965.78;;;4.27;82.77
77023;BME280;65952;51.440;-2.054;2023-02-15T05:23:19;100961.63;;;4.22;82.98
77023;BME280;65952;51.440;-2.054;2023-02-15T05:25:48;100947.75;;;4.19;83.60
77023;BME280;65952;51.440;-2.054;2023-02-15T05:28:34;100950.41;;;4.19;83.70
77023;BME280;65952;51.440;-2.054;2023-02-15T05:33:25;100960.78;;;4.22;83.89
77023;BME280;65952;51.440;-2.054;2023-02-15T05:35:50;100970.53;;;4.34;83.95
77023;BME280;65952;51.440;-2.054;2023-02-15T05:38:16;100973.72;;;4.39;83.85
77023;BME280;65952;51.440;-2.054;2023-02-15T05:40:41;100973.91;;;4.36;83.63
77023;BME280;65952;51.440;-2.054;2023-02-15T05:43:07;100971.63;;;4.32;83.48
77023;BME280;65952;51.440;-2.054;2023-02-15T05:45:32;100970.88;;;4.30;83.94
77023;BME280;65952;51.440;-2.054;2023-02-15T05:47:57;100964.91;;;4.26;83.40
77023;BME280;65952;51.440;-2.054;2023-02-15T05:50:23;100973.31;;;4.33;83.71
77023;BME280;65952;51.440;-2.054;2023-02-15T05:52:49;100957.13;;;4.36;83.72
77023;BME280;65952;51.440;-2.054;2023-02-15T05:55:14;100957.44;;;4.44;84.13
77023;BME280;65952;51.440;-2.054;2023-02-15T05:57:41;100955.50;;;4.46;84.81
77023;BME280;65952;51.440;-2.054;2023-02-15T06:00:08;100959.41;;;4.53;84.85
77023;BME280;65952;51.440;-2.054;2023-02-15T06:02:35;100958.13;;;4.59;84.51
77023;BME280;65952;51.440;-2.054;2023-02-15T06:05:02;100965.97;;;4.61;84.26
77023;BME280;65952;51.440;-2.054;2023-02-15T06:07:28;100955.84;;;4.66;84.37
77023;BME280;65952;51.440;-2.054;2023-02-15T06:09:53;100962.88;;;4.67;84.29
77023;BME280;65952;51.440;-2.054;2023-02-15T06:12:19;100955.97;;;4.64;84.03
77023;BME280;65952;51.440;-2.054;2023-02-15T06:14:44;100966.81;;;4.61;84.32
77023;BME280;65952;51.440;-2.054;2023-02-15T06:17:09;100958.69;;;4.76;84.25
77023;BME280;65952;51.440;-2.054;2023-02-15T06:19:35;100967.81;;;4.71;83.83
77023;BME280;65952;51.440;-2.054;2023-02-15T06:22:00;100962.19;;;4.76;82.45
77023;BME280;65952;51.440;-2.054;2023-02-15T06:24:25;100959.34;;;4.66;82.69
77023;BME280;65952;51.440;-2.054;2023-02-15T06:26:51;100960.88;;;4.58;84.14
77023;BME280;65952;51.440;-2.054;2023-02-15T06:29:16;100971.63;;;4.56;84.10
77023;BME280;65952;51.440;-2.054;2023-02-15T06:31:42;100972.81;;;4.52;84.07
77023;BME280;65952;51.440;-2.054;2023-02-15T06:34:07;100960.59;;;4.49;84.78
77023;BME280;65952;51.440;-2.054;2023-02-15T06:36:33;100960.22;;;4.67;85.51
77023;BME280;65952;51.440;-2.054;2023-02-15T06:38:58;100948.53;;;4.81;85.28
77023;BME280;65952;51.440;-2.054;2023-02-15T06:41:24;100957.75;;;4.88;85.19
77023;BME280;65952;51.440;-2.054;2023-02-15T06:43:50;100956.19;;;4.97;84.86
77023;BME280;65952;51.440;-2.054;2023-02-15T06:46:15;100956.47;;;5.05;84.33
77023;BME280;65952;51.440;-2.054;2023-02-15T06:48:41;100952.59;;;5.09;84.44
77023;BME280;65952;51.440;-2.054;2023-02-15T06:51:06;100957.00;;;5.21;84.12
77023;BME280;65952;51.440;-2.054;2023-02-15T06:53:32;100959.03;;;5.18;83.90
77023;BME280;65952;51.440;-2.054;2023-02-15T06:56:05;100965.47;;;5.27;84.22
77023;BME280;65952;51.440;-2.054;2023-02-15T06:58:38;100959.69;;;5.33;83.75
77023;BME280;65952;51.440;-2.054;2023-02-15T07:01:04;100953.13;;;5.26;83.28
77023;BME280;65952;51.440;-2.054;2023-02-15T07:03:30;100958.69;;;5.23;83.33
77023;BME280;65952;51.440;-2.054;2023-02-15T07:05:57;100956.03;;;5.23;83.13
77023;BME280;65952;51.440;-2.054;2023-02-15T07:08:24;100961.69;;;5.07;83.00
77023;BME280;65952;51.440;-2.054;2023-02-15T07:10:51;100960.22;;;5.02;83.57
77023;BME280;65952;51.440;-2.054;2023-02-15T07:13:16;100953.31;;;5.00;83.77
77023;BME280;65952;51.440;-2.054;2023-02-15T07:15:42;100959.09;;;4.94;84.07
77023;BME280;65952;51.440;-2.054;2023-02-15T07:18:08;100949.19;;;4.96;83.86
77023;BME280;65952;51.440;-2.054;2023-02-15T07:20:34;100946.25;;;4.87;84.05
77023;BME280;65952;51.440;-2.054;2023-02-15T07:23:00;100950.28;;;4.93;84.10
77023;BME280;65952;51.440;-2.054;2023-02-15T07:25:26;100957.16;;;4.84;84.20
77023;BME280;65952;51.440;-2.054;2023-02-15T07:27:59;100953.03;;;4.92;84.70
77023;BME280;65952;51.440;-2.054;2023-02-15T07:30:25;100957.91;;;4.98;84.95
77023;BME280;65952;51.440;-2.054;2023-02-15T07:32:50;100965.31;;;5.17;85.16
77023;BME280;65952;51.440;-2.054;2023-02-15T07:35:38;100966.56;;;5.24;85.79
77023;BME280;65952;51.440;-2.054;2023-02-15T07:38:06;100969.03;;;5.39;85.41
77023;BME280;65952;51.440;-2.054;2023-02-15T07:40:32;100961.41;;;5.45;84.78
77023;BME280;65952;51.440;-2.054;2023-02-15T07:42:58;100953.53;;;5.44;84.53
77023;BME280;65952;51.440;-2.054;2023-02-15T07:45:24;100955.97;;;5.47;84.27
77023;BME280;65952;51.440;-2.054;2023-02-15T07:47:49;100951.50;;;5.47;83.98
77023;BME280;65952;51.440;-2.054;2023-02-15T07:50:14;100955.34;;;5.43;84.40
77023;BME280;65952;51.440;-2.054;2023-02-15T07:52:40;100944.94;;;5.40;84.22
77023;BME280;65952;51.440;-2.054;2023-02-15T07:55:05;100943.97;;;5.41;84.71
77023;BME280;65952;51.440;-2.054;2023-02-15T07:57:31;100949.19;;;5.43;84.59
77023;BME280;65952;51.440;-2.054;2023-02-15T07:59:56;100950.28;;;5.40;84.64
77023;BME280;65952;51.440;-2.054;2023-02-15T08:02:21;100949.81;;;5.58;84.28
77023;BME280;65952;51.440;-2.054;2023-02-15T08:04:47;100945.94;;;5.62;84.14
77023;BME280;65952;51.440;-2.054;2023-02-15T08:07:12;100950.16;;;5.64;84.02
77023;BME280;65952;51.440;-2.054;2023-02-15T08:09:38;100950.41;;;5.61;84.79
77023;BME280;65952;51.440;-2.054;2023-02-15T08:12:03;100948.13;;;5.68;84.89
77023;BME280;65952;51.440;-2.054;2023-02-15T08:14:30;100955.75;;;5.73;84.64
77023;BME280;65952;51.440;-2.054;2023-02-15T08:16:55;100962.78;;;5.74;84.84
77023;BME280;65952;51.440;-2.054;2023-02-15T08:19:29;100967.63;;;5.80;84.83
77023;BME280;65952;51.440;-2.054;2023-02-15T08:21:57;100970.88;;;5.83;85.29
77023;BME280;65952;51.440;-2.054;2023-02-15T08:24:27;100971.00;;;5.93;85.12
77023;BME280;65952;51.440;-2.054;2023-02-15T08:26:52;100965.22;;;5.99;84.91
77023;BME280;65952;51.440;-2.054;2023-02-15T08:29:20;100957.81;;;6.14;84.60
77023;BME280;65952;51.440;-2.054;2023-02-15T08:31:48;100964.47;;;6.31;83.50
77023;BME280;65952;51.440;-2.054;2023-02-15T08:34:16;100978.34;;;6.46;82.96
77023;BME280;65952;51.440;-2.054;2023-02-15T08:36:42;100985.50;;;6.57;82.26
77023;BME280;65952;51.440;-2.054;2023-02-15T08:39:10;100985.34;;;6.59;82.24
77023;BME280;65952;51.440;-2.054;2023-02-15T08:41:37;100980.38;;;6.65;82.06
77023;BME280;65952;51.440;-2.054;2023-02-15T08:44:06;100997.78;;;6.81;81.55
77023;BME280;65952;51.440;-2.054;2023-02-15T08:46:34;100979.84;;;7.04;80.32
77023;BME280;65952;51.440;-2.054;2023-02-15T08:49:00;100971.22;;;7.12;80.02
77023;BME280;65952;51.440;-2.054;2023-02-15T08:51:31;100967.16;;;7.18;79.24
77023;BME280;65952;51.440;-2.054;2023-02-15T08:53:59;100972.13;;;7.22;79.41
77023;BME280;65952;51.440;-2.054;2023-02-15T08:56:28;100966.97;;;7.30;79.59
77023;BME280;65952;51.440;-2.054;2023-02-15T08:58:54;100954.94;;;7.36;79.58
77023;BME280;65952;51.440;-2.054;2023-02-15T09:01:23;100959.31;;;7.37;79.46
77023;BME280;65952;51.440;-2.054;2023-02-15T09:03:50;100946.97;;;7.46;79.56
77023;BME280;65952;51.440;-2.054;2023-02-15T09:06:20;100950.41;;;7.58;79.00
77023;BME280;65952;51.440;-2.054;2023-02-15T09:08:46;100951.81;;;7.62;78.53
77023;BME280;65952;51.440;-2.054;2023-02-15T09:11:19;100955.41;;;7.72;78.25
77023;BME280;65952;51.440;-2.054;2023-02-15T09:13:57;100951.03;;;7.71;78.76
77023;BME280;65952;51.440;-2.054;2023-02-15T09:16:25;100963.78;;;7.89;78.28
77023;BME280;65952;51.440;-2.054;2023-02-15T09:18:51;100946.53;;;8.03;77.67
77023;BME280;65952;51.440;-2.054;2023-02-15T09:21:19;100956.81;;;8.17;77.26
77023;BME280;65952;51.440;-2.054;2023-02-15T09:23:48;100948.25;;;8.23;77.30
77023;BME280;65952;51.440;-2.054;2023-02-15T09:26:16;100945.84;;;8.71;76.29
77023;BME280;65952;51.440;-2.054;2023-02-15T09:28:42;100938.88;;;9.74;72.97
77023;BME280;65952;51.440;-2.054;2023-02-15T09:31:08;100942.06;;;11.16;66.95
77023;BME280;65952;51.440;-2.054;2023-02-15T09:33:35;100932.94;;;12.39;63.52
77023;BME280;65952;51.440;-2.054;2023-02-15T09:36:03;100917.81;;;13.45;59.89
77023;BME280;65952;51.440;-2.054;2023-02-15T09:38:29;100914.78;;;14.27;56.79
77023;BME280;65952;51.440;-2.054;2023-02-15T09:43:46;100924.16;;;15.33;52.58
77023;BME280;65952;51.440;-2.054;2023-02-15T09:46:29;100923.50;;;15.46;52.80
77023;BME280;65952;51.440;-2.054;2023-02-15T09:49:15;100924.44;;;16.13;51.96
77023;BME280;65952;51.440;-2.054;2023-02-15T09:58:05;100917.91;;;16.65;48.80
77023;BME280;65952;51.440;-2.054;2023-02-15T10:03:30;100919.59;;;16.66;49.53
77023;BME280;65952;51.440;-2.054;2023-02-15T10:20:11;100912.41;;;17.24;48.98
77023;BME280;65952;51.440;-2.054;2023-02-15T10:27:50;100924.41;;;16.64;50.30
77023;BME280;65952;51.440;-2.054;2023-02-15T10:30:23;100916.88;;;16.45;50.42
77023;BME280;65952;51.440;-2.054;2023-02-15T10:33:00;100888.69;;;16.39;50.71
77023;BME280;65952;51.440;-2.054;2023-02-15T10:41:09;100897.19;;;16.57;51.28
77023;BME280;65952;51.440;-2.054;2023-02-15T11:07:29;100927.63;;;15.56;54.36
77023;BME280;65952;51.440;-2.054;2023-02-15T11:12:50;100919.91;;;15.15;55.42
77023;BME280;65952;51.440;-2.054;2023-02-15T11:15:39;100924.06;;;15.26;55.58
77023;BME280;65952;51.440;-2.054;2023-02-15T11:20:55;100936.00;;;14.93;55.65
77023;BME280;65952;51.440;-2.054;2023-02-15T11:23:24;100954.56;;;14.42;57.53
77023;BME280;65952;51.440;-2.054;2023-02-15T11:28:49;100940.94;;;14.67;57.54
77023;BME280;65952;51.440;-2.054;2023-02-15T11:31:18;100948.06;;;14.83;57.17
77023;BME280;65952;51.440;-2.054;2023-02-15T11:34:24;100952.44;;;14.60;57.67
77023;BME280;65952;51.440;-2.054;2023-02-15T11:36:40;100938.38;;;14.34;58.25
77023;BME280;65952;51.440;-2.054;2023-02-15T11:39:11;100953.66;;;14.18;58.89
77023;BME280;65952;51.440;-2.054;2023-02-15T11:41:41;100935.84;;;14.01;59.13
77023;BME280;65952;51.440;-2.054;2023-02-15T11:44:21;100929.72;;;13.67;60.58
77023;BME280;65952;51.440;-2.054;2023-02-15T11:46:48;100938.69;;;13.59;60.70
77023;BME280;65952;51.440;-2.054;2023-02-15T11:49:29;100932.66;;;13.41;60.87
77023;BME280;65952;51.440;-2.054;2023-02-15T11:51:56;100939.91;;;13.48;60.58
77023;BME280;65952;51.440;-2.054;2023-02-15T11:54:28;100938.53;;;13.44;60.46
77023;BME280;65952;51.440;-2.054;2023-02-15T11:57:05;100959.63;;;13.41;60.96
77023;BME280;65952;51.440;-2.054;2023-02-15T11:59:36;100952.56;;;13.40;61.38
77023;BME280;65952;51.440;-2.054;2023-02-15T12:02:06;100955.22;;;13.48;61.31
77023;BME280;65952;51.440;-2.054;2023-02-15T12:04:42;100953.72;;;13.29;61.42
77023;BME280;65952;51.440;-2.054;2023-02-15T12:07:28;100951.69;;;13.23;61.92
77023;BME280;65952;51.440;-2.054;2023-02-15T12:10:05;100952.19;;;13.01;62.77
77023;BME280;65952;51.440;-2.054;2023-02-15T12:12:37;100931.31;;;12.95;63.06
77023;BME280;65952;51.440;-2.054;2023-02-15T12:15:08;100919.53;;;12.96;62.76
77023;BME280;65952;51.440;-2.054;2023-02-15T12:17:52;100911.78;;;12.68;63.46
77023;BME280;65952;51.440;-2.054;2023-02-15T12:22:59;100898.31;;;12.68;63.85
77023;BME280;65952;51.440;-2.054;2023-02-15T12:27:54;100884.34;;;12.73;64.59
77023;BME280;65952;51.440;-2.054;2023-02-15T12:30:39;100878.44;;;12.78;63.81
77023;BME280;65952;51.440;-2.054;2023-02-15T12:33:21;100886.53;;;12.86;63.30
77023;BME280;65952;51.440;-2.054;2023-02-15T12:35:57;100885.69;;;12.86;63.82
77023;BME280;65952;51.440;-2.054;2023-02-15T12:38:25;100891.09;;;12.86;63.56
77023;BME280;65952;51.440;-2.054;2023-02-15T12:41:02;100881.81;;;12.88;63.84
77023;BME280;65952;51.440;-2.054;2023-02-15T12:43:40;100881.13;;;12.86;64.03
77023;BME280;65952;51.440;-2.054;2023-02-15T12:46:14;100870.38;;;12.94;64.09
77023;BME280;65952;51.440;-2.054;2023-02-15T12:48:44;100877.09;;;12.98;64.11
77023;BME280;65952;51.440;-2.054;2023-02-15T12:51:14;100880.28;;;12.94;64.34
77023;BME280;65952;51.440;-2.054;2023-02-15T12:53:40;100882.66;;;12.97;64.28
77023;BME280;65952;51.440;-2.054;2023-02-15T12:56:09;100878.41;;;13.03;64.60
77023;BME280;65952;51.440;-2.054;2023-02-15T12:58:37;100878.56;;;13.17;64.25
77023;BME280;65952;51.440;-2.054;2023-02-15T13:03:35;100874.00;;;13.43;63.16
77023;BME280;65952;51.440;-2.054;2023-02-15T13:06:03;100878.50;;;13.51;62.27
77023;BME280;65952;51.440;-2.054;2023-02-15T13:08:37;100866.91;;;13.50;61.16
77023;BME280;65952;51.440;-2.054;2023-02-15T13:11:11;100859.31;;;13.54;61.55
77023;BME280;65952;51.440;-2.054;2023-02-15T13:13:55;100867.91;;;13.49;62.48
77023;BME280;65952;51.440;-2.054;2023-02-15T13:16:36;100863.56;;;13.40;62.59
77023;BME280;65952;51.440;-2.054;2023-02-15T13:19:26;100866.94;;;13.25;62.68
77023;BME280;65952;51.440;-2.054;2023-02-15T13:21:55;100863.88;;;13.37;62.44
77023;BME280;65952;51.440;-2.054;2023-02-15T13:24:26;100866.91;;;13.50;62.48
77023;BME280;65952;51.440;-2.054;2023-02-15T13:26:56;100856.41;;;13.63;62.11
77023;BME280;65952;51.440;-2.054;2023-02-15T13:29:25;100854.56;;;13.56;62.08
77023;BME280;65952;51.440;-2.054;2023-02-15T13:31:53;100846.94;;;13.68;61.55
77023;BME280;65952;51.440;-2.054;2023-02-15T13:34:24;100848.63;;;13.69;60.42
77023;BME280;65952;51.440;-2.054;2023-02-15T13:37:08;100844.38;;;13.74;59.74
77023;BME280;65952;51.440;-2.054;2023-02-15T13:42:25;100833.78;;;13.64;59.44
77023;BME280;65952;51.440;-2.054;2023-02-15T13:50:52;100796.41;;;13.53;59.30
77023;BME280;65952;51.440;-2.054;2023-02-15T13:56:40;100797.69;;;13.26;59.72
77023;BME280;65952;51.440;-2.054;2023-02-15T14:04:53;100800.22;;;13.19;60.99
77023;BME280;65952;51.440;-2.054;2023-02-15T14:10:19;100804.25;;;13.23;61.50
77023;BME280;65952;51.440;-2.054;2023-02-15T14:13:29;100802.56;;;13.22;60.95
77023;BME280;65952;51.440;-2.054;2023-02-15T14:16:27;100803.91;;;13.26;61.22
77023;BME280;65952;51.440;-2.054;2023-02-15T14:21:48;100804.41;;;13.30;61.50
77023;BME280;65952;51.440;-2.054;2023-02-15T14:29:45;100801.28;;;13.58;61.29
77023;BME280;65952;51.440;-2.054;2023-02-15T14:32:41;100797.06;;;13.55;61.83
77023;BME280;65952;51.440;-2.054;2023-02-15T14:35:26;100791.28;;;13.67;61.49
77023;BME280;65952;51.440;-2.054;2023-02-15T14:38:02;100786.72;;;13.67;62.20
77023;BME280;65952;51.440;-2.054;2023-02-15T14:40:51;100784.88;;;13.68;62.15
77023;BME280;65952;51.440;-2.054;2023-02-15T14:43:44;100783.81;;;13.77;61.80
77023;BME280;65952;51.440;-2.054;2023-02-15T14:46:26;100787.00;;;13.80;61.74
77023;BME280;65952;51.440;-2.054;2023-02-15T14:48:58;100785.53;;;13.70;61.94
77023;BME280;65952;51.440;-2.054;2023-02-15T14:59:54;100794.44;;;13.30;63.96
77023;BME280;65952;51.440;-2.054;2023-02-15T15:05:23;100789.59;;;13.17;64.83
77023;BME280;65952;51.440;-2.054;2023-02-15T15:07:51;100788.78;;;13.17;64.88
77023;BME280;65952;51.440;-2.054;2023-02-15T15:12:48;100796.19;;;13.07;65.58
77023;BME280;65952;51.440;-2.054;2023-02-15T15:17:55;100795.59;;;12.88;66.45
77023;BME280;65952;51.440;-2.054;2023-02-15T15:20:56;100802.66;;;12.73;67.25
77023;BME280;65952;51.440;-2.054;2023-02-15T15:25:59;100803.03;;;12.70;67.46
77023;BME280;65952;51.440;-2.054;2023-02-15T15:31:22;100795.94;;;12.52;68.89
77023;BME280;65952;51.440;-2.054;2023-02-15T15:39:42;100796.28;;;12.41;71.23
77023;BME280;65952;51.440;-2.054;2023-02-15T15:50:28;100796.94;;;12.10;73.31
77023;BME280;65952;51.440;-2.054;2023-02-15T15:52:56;100806.00;;;12.09;73.50
77023;BME280;65952;51.440;-2.054;2023-02-15T15:55:25;100809.38;;;12.02;73.53
77023;BME280;65952;51.440;-2.054;2023-02-15T15:57:55;100811.75;;;12.06;73.67